aviador You're here:

KFWN Decoded Metar

SUSSEX in NJ, USA
Report Time2017-10-19 08:53:00
UTC Time2017-10-19 09:05:08
Flight Rules vfr VFR
WindCalm
Visibility9999 m
Phenomena:N/A
Clouds:N/A
Expected CloudBase > 400 ft AGL from Temp-Dew spread
CeilingNone
Temp05°C (ISA -9)
Dew Point04°C (93% RH)
AAT3.7°C
QNH1024 hPa
Density Alt-928 ft
Elevation436 ft
Report Wrong Elevation
Raw Report
METAR KFWN 190853Z AUTO 00000KT 10SM CLR 05/04 A3025 RMK AO2 SLP245
T00500044 55004=

Extra information for KFWN:More info

Metar Taf Metar & Taf Last 4 Metars F.Rules Stats Wind Profile Meteogram Temp Stats Airport Information Weather charts Add Link Nearby VenuesMetar ALERT Operation Metar Decoded Social comments

AIRNAV info for KFWN